createdAt,value
2018-05-09T00:00:48.728Z,8.63
2018-05-09T00:03:16.135Z,8.13
2018-05-09T00:05:43.560Z,9.30
2018-05-09T00:08:10.972Z,7.72
2018-05-09T00:10:38.385Z,6.85
2018-05-09T00:13:05.788Z,8.15
2018-05-09T00:15:33.207Z,7.25
2018-05-09T00:18:00.604Z,7.72
2018-05-09T00:20:28.035Z,11.82
2018-05-09T00:22:55.432Z,8.30
2018-05-09T00:25:22.852Z,7.50
2018-05-09T00:27:50.273Z,11.65
2018-05-09T00:30:17.684Z,7.53
2018-05-09T00:32:45.089Z,8.05
2018-05-09T00:35:12.506Z,8.85
2018-05-09T00:37:39.910Z,6.93
2018-05-09T00:40:07.325Z,9.57
2018-05-09T00:42:34.742Z,10.18
2018-05-09T00:45:02.164Z,10.95
2018-05-09T00:47:29.576Z,9.40
2018-05-09T00:49:56.992Z,8.73
2018-05-09T00:52:24.393Z,8.68
2018-05-09T00:54:51.809Z,9.32
2018-05-09T00:57:19.222Z,8.23
2018-05-09T00:59:46.679Z,6.78
2018-05-09T01:02:14.087Z,7.12
2018-05-09T01:04:41.492Z,9.95
2018-05-09T01:07:08.908Z,5.47
2018-05-09T01:09:36.321Z,8.13
2018-05-09T01:12:03.736Z,8.32
2018-05-09T01:14:31.144Z,7.68
2018-05-09T01:16:58.565Z,5.60
2018-05-09T01:19:25.969Z,6.62
2018-05-09T01:21:53.388Z,6.10
2018-05-09T01:24:20.796Z,8.30
2018-05-09T01:26:48.215Z,5.30
2018-05-09T01:29:15.625Z,4.65
2018-05-09T01:31:43.039Z,6.80
2018-05-09T01:34:10.445Z,6.75
2018-05-09T01:36:37.860Z,8.18
2018-05-09T01:39:06.165Z,7.30
2018-05-09T01:41:33.576Z,6.37
2018-05-09T01:44:00.983Z,7.05
2018-05-09T01:46:28.400Z,7.78
2018-05-09T01:48:55.802Z,7.05
2018-05-09T01:51:23.212Z,7.37
2018-05-09T01:53:50.622Z,6.65
2018-05-09T01:56:18.032Z,8.60
2018-05-09T01:58:45.439Z,6.78
2018-05-09T02:01:12.860Z,6.80
2018-05-09T02:03:40.264Z,7.00
2018-05-09T02:06:07.739Z,7.18
2018-05-09T02:08:35.082Z,7.57
2018-05-09T02:11:02.505Z,8.38
2018-05-09T02:13:29.908Z,7.85
2018-05-09T02:15:57.384Z,7.15
2018-05-09T02:18:24.788Z,8.40
2018-05-09T02:20:52.203Z,6.18
2018-05-09T02:23:19.604Z,5.95
2018-05-09T02:25:47.020Z,5.68
2018-05-09T02:28:14.421Z,6.30
2018-05-09T02:30:41.842Z,6.03
2018-05-09T02:33:09.256Z,6.70
2018-05-09T02:35:36.656Z,5.75
2018-05-09T02:38:04.065Z,6.47
2018-05-09T02:40:31.472Z,6.30
2018-05-09T02:42:58.891Z,7.80
2018-05-09T02:45:26.296Z,7.95
2018-05-09T02:47:53.712Z,8.75
2018-05-09T02:50:21.113Z,6.22
2018-05-09T02:52:48.529Z,5.35
2018-05-09T02:55:15.936Z,5.22
2018-05-09T02:57:43.348Z,5.93
2018-05-09T03:00:10.761Z,5.15
2018-05-09T03:02:38.173Z,6.40
2018-05-09T03:05:05.585Z,6.10
2018-05-09T03:07:32.997Z,5.45
2018-05-09T03:10:00.409Z,7.53
2018-05-09T03:12:27.811Z,4.87
2018-05-09T03:14:55.214Z,4.32
2018-05-09T03:17:22.628Z,4.60
2018-05-09T03:19:50.041Z,3.90
2018-05-09T03:22:17.453Z,4.60
2018-05-09T03:24:44.861Z,3.35
2018-05-09T03:27:12.275Z,4.10
2018-05-09T03:29:39.770Z,6.68
2018-05-09T03:32:07.093Z,3.40
2018-05-09T03:34:34.504Z,4.47
2018-05-09T03:37:01.905Z,5.35
2018-05-09T03:39:29.312Z,4.00
2018-05-09T03:41:56.715Z,5.50
2018-05-09T03:44:24.136Z,4.40
2018-05-09T03:46:51.540Z,5.15
2018-05-09T03:49:18.952Z,4.12
2018-05-09T03:51:46.369Z,4.53
2018-05-09T03:54:13.788Z,5.45
2018-05-09T03:56:41.187Z,4.53
2018-05-09T03:59:08.632Z,5.93
2018-05-09T04:04:47.468Z,4.95
2018-05-09T04:07:26.682Z,4.50
2018-05-09T04:09:54.815Z,4.90
2018-05-09T04:12:22.226Z,4.70
2018-05-09T04:14:49.711Z,4.05
2018-05-09T04:17:17.086Z,3.55
2018-05-09T04:19:44.508Z,4.90
2018-05-09T04:22:11.919Z,5.18
2018-05-09T04:24:39.325Z,4.07
2018-05-09T04:27:06.747Z,4.28
2018-05-09T04:29:34.214Z,8.05
2018-05-09T04:32:01.569Z,5.15
2018-05-09T04:34:28.973Z,5.60
2018-05-09T04:36:56.384Z,3.97
2018-05-09T04:39:23.797Z,6.55
2018-05-09T04:41:51.246Z,3.15
2018-05-09T04:44:18.625Z,4.60
2018-05-09T04:46:46.045Z,4.90
2018-05-09T04:49:13.544Z,6.12
2018-05-09T04:51:40.867Z,5.78
2018-05-09T04:54:08.269Z,3.25
2018-05-09T04:56:35.683Z,5.47
2018-05-09T04:59:03.089Z,7.15
2018-05-09T05:01:30.505Z,5.97
2018-05-09T05:03:57.916Z,6.28
2018-05-09T05:06:25.325Z,5.85
2018-05-09T05:08:52.728Z,5.22
2018-05-09T05:11:20.149Z,5.03
2018-05-09T05:13:47.556Z,8.60
2018-05-09T05:16:14.961Z,6.10
2018-05-09T05:18:42.381Z,6.10
2018-05-09T05:21:09.789Z,5.55
2018-05-09T05:23:37.205Z,6.00
2018-05-09T05:26:04.611Z,7.80
2018-05-09T05:28:32.029Z,6.55
2018-05-09T05:30:59.440Z,8.48
2018-05-09T05:33:26.857Z,8.05
2018-05-09T05:35:54.269Z,7.28
2018-05-09T05:38:21.672Z,7.05
2018-05-09T05:40:49.084Z,8.25
2018-05-09T05:43:16.497Z,7.93
2018-05-09T05:45:43.900Z,9.65
2018-05-09T05:48:11.321Z,7.35
2018-05-09T05:50:38.728Z,7.45
2018-05-09T05:53:06.144Z,9.23
2018-05-09T05:55:33.549Z,9.05
2018-05-09T05:58:00.964Z,11.38
2018-05-09T06:00:28.377Z,7.53
2018-05-09T06:02:55.793Z,6.72
2018-05-09T06:05:23.199Z,7.90
2018-05-09T06:07:50.637Z,10.02
2018-05-09T06:10:18.069Z,10.65
2018-05-09T06:12:45.501Z,8.70
2018-05-09T06:15:12.904Z,9.60
2018-05-09T06:17:40.316Z,9.77
2018-05-09T06:20:07.732Z,11.07
2018-05-09T06:22:35.150Z,12.60
2018-05-09T06:25:02.574Z,11.60
2018-05-09T06:27:29.985Z,9.20
2018-05-09T06:29:57.402Z,9.98
2018-05-09T06:32:24.813Z,13.93
2018-05-09T06:34:52.234Z,9.75
2018-05-09T06:37:19.636Z,9.10
2018-05-09T06:39:47.064Z,8.57
2018-05-09T06:42:14.477Z,12.95
2018-05-09T06:44:41.900Z,10.50
2018-05-09T06:47:09.317Z,13.30
2018-05-09T06:49:36.733Z,7.12
2018-05-09T06:52:04.150Z,9.30
2018-05-09T06:54:31.573Z,12.65
2018-05-09T06:56:58.984Z,13.77
2018-05-09T06:59:26.404Z,13.90
2018-05-09T07:01:53.825Z,15.65
2018-05-09T07:04:21.243Z,15.00
2018-05-09T07:06:48.754Z,12.40
2018-05-09T07:09:16.092Z,13.10
2018-05-09T07:11:43.510Z,13.35
2018-05-09T07:14:10.935Z,15.00
2018-05-09T07:16:38.339Z,27.70
2018-05-09T07:19:05.765Z,19.37
2018-05-09T07:21:33.185Z,20.02
2018-05-09T07:24:00.611Z,14.98
2018-05-09T07:26:28.030Z,21.10
2018-05-09T07:28:55.460Z,18.42
2018-05-09T07:31:22.873Z,23.58
2018-05-09T07:33:50.302Z,27.15
2018-05-09T07:36:17.713Z,30.10
2018-05-09T07:38:45.133Z,24.95
2018-05-09T07:41:12.555Z,22.33
2018-05-09T07:43:39.981Z,22.50
2018-05-09T07:46:07.400Z,19.52
2018-05-09T07:48:34.819Z,18.17
2018-05-09T07:51:02.239Z,25.67
2018-05-09T07:53:29.652Z,21.95
2018-05-09T07:55:57.076Z,26.02
2018-05-09T07:58:24.493Z,34.03
2018-05-09T08:00:51.921Z,29.63
2018-05-09T08:03:19.341Z,26.25
2018-05-09T08:05:46.772Z,32.72
2018-05-09T08:08:14.184Z,31.00
2018-05-09T08:10:41.614Z,22.55
2018-05-09T08:13:09.024Z,27.08
2018-05-09T08:15:36.452Z,33.08
2018-05-09T08:18:03.867Z,36.85
2018-05-09T08:20:31.292Z,48.17
2018-05-09T08:22:58.700Z,31.62
2018-05-09T08:25:26.120Z,49.38
2018-05-09T08:27:53.540Z,40.58
2018-05-09T08:30:21.062Z,47.75
2018-05-09T08:32:48.393Z,41.28
2018-05-09T08:35:15.818Z,49.30
2018-05-09T08:37:43.232Z,43.10
2018-05-09T08:40:10.672Z,45.95
2018-05-09T08:42:38.085Z,32.60
2018-05-09T08:45:05.507Z,43.33
2018-05-09T08:47:32.919Z,46.00
2018-05-09T08:50:00.345Z,31.95
2018-05-09T08:52:27.755Z,39.22
2018-05-09T08:54:55.190Z,34.85
2018-05-09T08:57:22.601Z,41.97
2018-05-09T08:59:50.016Z,49.95
2018-05-09T09:02:17.428Z,41.10
2018-05-09T09:04:44.853Z,39.78
2018-05-09T09:07:12.268Z,47.00
2018-05-09T09:09:39.692Z,58.53
2018-05-09T09:12:07.109Z,51.15
2018-05-09T09:14:34.531Z,42.62
2018-05-09T09:17:01.936Z,48.47
2018-05-09T09:19:29.362Z,53.70
2018-05-09T09:21:56.769Z,43.03
2018-05-09T09:24:24.192Z,36.42
2018-05-09T09:26:51.601Z,52.25
2018-05-09T09:29:19.123Z,46.08
2018-05-09T09:31:46.433Z,48.55
2018-05-09T09:34:13.844Z,57.28
2018-05-09T09:36:41.264Z,44.67
2018-05-09T09:39:08.682Z,70.90
2018-05-09T09:41:36.104Z,60.15
2018-05-09T09:44:03.516Z,64.78
2018-05-09T09:46:30.940Z,83.70
2018-05-09T09:48:58.368Z,104.40
2018-05-09T09:51:25.796Z,89.45
2018-05-09T09:53:53.218Z,105.07
2018-05-09T09:56:20.641Z,87.47
2018-05-09T09:58:48.077Z,73.80
2018-05-09T10:01:15.495Z,79.53
2018-05-09T10:03:42.913Z,89.35
2018-05-09T10:06:10.335Z,89.90
2018-05-09T10:08:37.757Z,91.00
2018-05-09T10:11:05.179Z,91.20
2018-05-09T10:13:32.601Z,74.62
2018-05-09T10:16:00.070Z,84.22
2018-05-09T10:18:27.440Z,92.55
2018-05-09T10:20:54.871Z,71.70
2018-05-09T10:23:22.360Z,64.93
2018-05-09T10:25:49.716Z,61.60
2018-05-09T10:28:17.125Z,62.15
2018-05-09T10:30:44.552Z,53.47
2018-05-09T10:33:11.969Z,80.00
2018-05-09T10:35:39.396Z,82.30
2018-05-09T10:38:06.827Z,73.50
2018-05-09T10:40:34.257Z,87.95
2018-05-09T10:43:01.685Z,103.55
2018-05-09T10:45:29.132Z,100.62
2018-05-09T10:47:56.560Z,115.45
2018-05-09T10:50:23.994Z,55.80
2018-05-09T10:52:51.411Z,86.78
2018-05-09T10:55:18.849Z,127.90
2018-05-09T10:57:46.278Z,96.68
2018-05-09T11:00:13.713Z,99.78
2018-05-09T11:02:41.168Z,118.10
2018-05-09T11:05:08.677Z,131.98
2018-05-09T11:07:36.024Z,115.45
2018-05-09T11:10:03.445Z,97.30
2018-05-09T11:12:30.883Z,97.43
2018-05-09T11:14:58.306Z,93.15
2018-05-09T11:17:25.745Z,130.25
2018-05-09T11:19:53.168Z,95.87
2018-05-09T11:22:20.617Z,120.68
2018-05-09T11:24:48.044Z,99.07
2018-05-09T11:27:15.504Z,109.35
2018-05-09T11:29:42.928Z,123.00
2018-05-09T11:32:10.373Z,127.47
2018-05-09T11:34:37.792Z,112.60
2018-05-09T11:37:05.232Z,141.88
2018-05-09T11:39:32.660Z,87.78
2018-05-09T11:42:00.093Z,94.80
2018-05-09T11:44:27.525Z,106.55
2018-05-09T11:46:54.951Z,108.80
2018-05-09T11:49:22.372Z,118.83
2018-05-09T11:51:49.805Z,90.00
2018-05-09T11:54:17.224Z,114.83
2018-05-09T11:56:44.681Z,133.13
2018-05-09T11:59:12.104Z,146.53
2018-05-09T12:01:39.539Z,137.77
2018-05-09T12:04:06.957Z,127.83
2018-05-09T12:06:34.388Z,113.80
2018-05-09T12:09:01.797Z,85.40
2018-05-09T12:11:29.229Z,101.93
2018-05-09T12:13:56.644Z,87.50
2018-05-09T12:16:24.092Z,101.63
2018-05-09T12:18:51.525Z,149.07
2018-05-09T12:21:18.956Z,117.47
2018-05-09T12:23:46.372Z,106.93
2018-05-09T12:26:13.798Z,98.30
2018-05-09T12:28:41.217Z,106.50
2018-05-09T12:31:08.649Z,122.20
2018-05-09T12:33:36.073Z,136.60
2018-05-09T12:36:03.529Z,91.13
2018-05-09T12:38:30.949Z,108.40
2018-05-09T12:40:58.376Z,92.03
2018-05-09T12:43:25.800Z,118.10
2018-05-09T12:45:53.224Z,120.40
2018-05-09T12:48:20.649Z,114.13
2018-05-09T12:50:48.073Z,107.20
2018-05-09T12:53:15.500Z,109.93
2018-05-09T12:55:42.916Z,97.90
2018-05-09T12:58:10.333Z,83.53
2018-05-09T13:00:37.753Z,98.73
2018-05-09T13:03:05.189Z,114.67
2018-05-09T13:05:32.612Z,108.97
2018-05-09T13:08:00.044Z,114.80
2018-05-09T13:10:27.472Z,112.00
2018-05-09T13:12:54.900Z,95.40
2018-05-09T13:15:22.311Z,78.90
2018-05-09T13:17:49.749Z,149.77
2018-05-09T13:20:17.168Z,126.00
2018-05-09T13:22:44.593Z,100.63
2018-05-09T13:25:12.011Z,120.00
2018-05-09T13:27:39.449Z,119.83
2018-05-09T13:30:06.873Z,108.13
2018-05-09T13:32:34.306Z,101.57
2018-05-09T13:35:01.741Z,123.43
2018-05-09T13:37:29.178Z,134.60
2018-05-09T13:39:56.649Z,189.57
2018-05-09T13:42:24.024Z,130.70
2018-05-09T13:44:51.436Z,94.10
2018-05-09T13:47:18.873Z,121.77
2018-05-09T13:49:46.289Z,113.90
2018-05-09T13:52:13.717Z,118.93
2018-05-09T13:54:41.137Z,131.77
2018-05-09T13:57:08.564Z,128.97
2018-05-09T13:59:35.984Z,109.80
2018-05-09T14:02:03.413Z,114.00
2018-05-09T14:04:31.002Z,121.17
2018-05-09T14:06:58.459Z,109.50
2018-05-09T14:09:25.884Z,113.50
2018-05-09T14:11:53.313Z,103.90
2018-05-09T14:14:20.740Z,111.53
2018-05-09T14:16:48.184Z,74.60
2018-05-09T14:19:15.608Z,95.97
2018-05-09T14:21:43.024Z,118.07
2018-05-09T14:24:10.457Z,125.57
2018-05-09T14:26:37.879Z,108.67
2018-05-09T14:29:05.308Z,124.17
2018-05-09T14:31:32.733Z,123.27
2018-05-09T14:34:00.156Z,116.87
2018-05-09T14:36:27.583Z,111.73
2018-05-09T14:38:55.037Z,113.53
2018-05-09T14:41:22.462Z,145.43
2018-05-09T14:43:49.900Z,115.47
2018-05-09T14:46:17.324Z,116.00
2018-05-09T14:48:44.757Z,140.20
2018-05-09T14:51:12.196Z,135.77
2018-05-09T14:53:39.638Z,127.00
2018-05-09T14:56:07.074Z,127.38
2018-05-09T14:58:38.341Z,86.18
2018-05-09T15:01:05.751Z,93.68
2018-05-09T15:03:33.199Z,108.82
2018-05-09T15:06:00.626Z,110.68
2018-05-09T15:08:28.056Z,93.65
2018-05-09T15:10:55.473Z,91.18
2018-05-09T15:13:22.909Z,88.43
2018-05-09T15:15:50.321Z,95.60
2018-05-09T15:18:17.778Z,86.07
2018-05-09T15:20:45.193Z,93.78
2018-05-09T15:23:12.638Z,102.43
2018-05-09T15:25:40.065Z,125.47
2018-05-09T15:28:07.497Z,109.70
2018-05-09T15:30:34.922Z,101.12
2018-05-09T15:33:02.356Z,74.28
2018-05-09T15:35:29.772Z,125.75
2018-05-09T15:37:57.201Z,114.40
2018-05-09T15:40:24.622Z,95.82
2018-05-09T15:45:25.917Z,136.77
2018-05-09T15:47:53.344Z,72.70
2018-05-09T15:50:20.834Z,110.20
2018-05-09T15:52:48.196Z,104.57
2018-05-09T15:55:15.618Z,89.15
2018-05-09T15:57:43.079Z,92.97
2018-05-09T16:00:10.446Z,94.78
2018-05-09T16:02:37.860Z,77.82
2018-05-09T16:05:05.280Z,85.43
2018-05-09T16:07:32.716Z,51.72
2018-05-09T16:10:00.146Z,56.05
2018-05-09T16:12:27.555Z,71.12
2018-05-09T16:14:54.977Z,74.80
2018-05-09T16:17:22.388Z,59.92
2018-05-09T16:19:49.820Z,64.32
2018-05-09T16:22:17.288Z,58.78
2018-05-09T16:24:44.693Z,64.75
2018-05-09T16:27:12.112Z,59.15
2018-05-09T16:29:39.541Z,62.90
2018-05-09T16:32:06.956Z,65.70
2018-05-09T16:34:34.377Z,51.05
2018-05-09T16:37:01.797Z,64.22
2018-05-09T16:39:29.216Z,50.20
2018-05-09T16:41:56.636Z,69.35
2018-05-09T16:44:24.056Z,63.13
2018-05-09T16:46:51.590Z,64.57
2018-05-09T16:49:19.031Z,68.10
2018-05-09T16:51:46.465Z,81.45
2018-05-09T16:54:13.893Z,88.62
2018-05-09T16:56:41.312Z,78.45
2018-05-09T16:59:08.735Z,98.35
2018-05-09T17:01:36.212Z,67.25
2018-05-09T17:04:03.580Z,91.82
2018-05-09T17:06:31.016Z,66.85
2018-05-09T17:08:58.444Z,64.12
2018-05-09T17:11:25.865Z,70.55
2018-05-09T17:13:53.279Z,47.38
2018-05-09T17:16:20.696Z,80.38
2018-05-09T17:18:48.124Z,95.03
2018-05-09T17:21:33.168Z,116.10
2018-05-09T17:24:00.585Z,76.78
2018-05-09T17:26:28.001Z,52.30
2018-05-09T17:28:55.432Z,38.50
2018-05-09T17:31:22.849Z,51.75
2018-05-09T17:33:50.267Z,65.35
2018-05-09T17:36:17.682Z,69.43
2018-05-09T17:38:45.112Z,77.60
2018-05-09T17:41:12.528Z,86.87
2018-05-09T17:43:39.955Z,95.78
2018-05-09T17:46:07.383Z,70.87
2018-05-09T17:48:34.793Z,74.80
2018-05-09T17:51:02.225Z,67.78
2018-05-09T17:53:29.646Z,68.90
2018-05-09T17:55:57.069Z,81.15
2018-05-09T17:58:24.492Z,80.62
2018-05-09T18:00:51.918Z,60.88
2018-05-09T18:03:19.332Z,62.33
2018-05-09T18:05:46.752Z,59.63
2018-05-09T18:08:14.176Z,69.37
2018-05-09T18:10:41.604Z,62.60
2018-05-09T18:13:09.008Z,49.83
2018-05-09T18:15:36.436Z,49.95
2018-05-09T18:18:03.920Z,54.08
2018-05-09T18:20:31.345Z,47.13
2018-05-09T18:22:58.761Z,55.53
2018-05-09T18:25:26.196Z,49.03
2018-05-09T18:27:53.616Z,57.60
2018-05-09T18:30:21.033Z,51.37
2018-05-09T18:32:48.448Z,62.00
2018-05-09T18:35:15.877Z,44.35
2018-05-09T18:37:43.289Z,53.65
2018-05-09T18:40:10.738Z,59.70
2018-05-09T18:42:38.147Z,47.80
2018-05-09T18:45:05.573Z,48.72
2018-05-09T18:47:32.988Z,37.22
2018-05-09T18:50:00.416Z,45.63
2018-05-09T18:52:27.828Z,65.35
2018-05-09T18:54:55.256Z,48.90
2018-05-09T18:57:22.681Z,40.40
2018-05-09T18:59:50.192Z,36.75
2018-05-09T19:02:17.534Z,48.05
2018-05-09T19:04:44.964Z,48.28
2018-05-09T19:07:12.364Z,31.23
2018-05-09T19:09:39.789Z,39.38
2018-05-09T19:12:07.204Z,33.88
2018-05-09T19:14:34.631Z,32.30
2018-05-09T19:17:02.049Z,32.22
2018-05-09T19:19:29.477Z,28.75
2018-05-09T19:21:56.892Z,36.55
2018-05-09T19:24:24.311Z,29.63
2018-05-09T19:26:51.733Z,31.37
2018-05-09T19:29:19.139Z,43.25
2018-05-09T19:31:46.569Z,30.90
2018-05-09T19:34:13.992Z,25.17
2018-05-09T19:36:41.408Z,30.45
2018-05-09T19:39:08.829Z,33.38
2018-05-09T19:41:36.329Z,38.58
2018-05-09T19:44:03.667Z,31.25
2018-05-09T19:46:31.089Z,29.87
2018-05-09T19:48:58.501Z,33.75
2018-05-09T19:51:25.921Z,23.55
2018-05-09T19:53:53.339Z,18.45
2018-05-09T19:56:20.765Z,27.10
2018-05-09T19:58:48.184Z,29.50
2018-05-09T20:01:15.609Z,28.17
2018-05-09T20:03:43.026Z,30.58
2018-05-09T20:06:10.445Z,29.95
2018-05-09T20:08:37.961Z,22.05
2018-05-09T20:11:05.312Z,29.80
2018-05-09T20:13:32.729Z,24.58
2018-05-09T20:16:00.161Z,22.13
2018-05-09T20:18:27.605Z,23.90
2018-05-09T20:20:55.049Z,26.83
2018-05-09T20:23:22.464Z,27.27
2018-05-09T20:25:49.891Z,28.25
2018-05-09T20:28:17.312Z,25.42
2018-05-09T20:30:50.320Z,20.52
2018-05-09T20:33:17.720Z,18.48
2018-05-09T20:35:45.144Z,18.55
2018-05-09T20:38:12.561Z,20.65
2018-05-09T20:40:39.992Z,23.95
2018-05-09T20:43:07.404Z,16.50
2018-05-09T20:45:34.835Z,19.75
2018-05-09T20:48:02.253Z,20.25
2018-05-09T20:50:29.671Z,18.02
2018-05-09T20:52:57.088Z,14.65
2018-05-09T20:55:29.345Z,15.32
2018-05-09T20:57:56.760Z,18.75
2018-05-09T21:00:24.172Z,17.58
2018-05-09T21:02:51.595Z,17.33
2018-05-09T21:05:19.017Z,22.05
2018-05-09T21:07:58.191Z,25.08
2018-05-09T21:10:25.606Z,31.42
2018-05-09T21:12:53.030Z,26.45
2018-05-09T21:15:20.443Z,25.25
2018-05-09T21:17:47.864Z,19.17
2018-05-09T21:20:15.347Z,24.05
2018-05-09T21:22:42.716Z,18.62
2018-05-09T21:25:10.144Z,17.70
2018-05-09T21:27:37.646Z,26.85
2018-05-09T21:30:04.997Z,23.48
2018-05-09T21:32:32.420Z,24.95
2018-05-09T21:34:59.841Z,23.98
2018-05-09T21:37:27.260Z,20.80
2018-05-09T21:39:54.685Z,17.83
2018-05-09T21:42:22.109Z,14.73
2018-05-09T21:44:49.528Z,14.77
2018-05-09T21:47:16.944Z,16.17
2018-05-09T21:49:44.408Z,16.30
2018-05-09T21:52:11.778Z,21.25
2018-05-09T21:54:39.193Z,18.05
2018-05-09T21:57:06.619Z,14.68
2018-05-09T21:59:34.049Z,15.20
2018-05-09T22:02:01.474Z,15.85
2018-05-09T22:04:28.892Z,18.15
2018-05-09T22:06:56.320Z,14.68
2018-05-09T22:09:23.760Z,14.35
2018-05-09T22:11:51.181Z,15.10
2018-05-09T22:14:18.596Z,11.43
2018-05-09T22:16:46.025Z,14.93
2018-05-09T22:19:13.440Z,16.75
2018-05-09T22:21:40.870Z,17.02
2018-05-09T22:24:08.292Z,20.55
2018-05-09T22:26:35.705Z,13.38
2018-05-09T22:29:03.129Z,14.15
2018-05-09T22:31:30.542Z,11.70
2018-05-09T22:33:57.960Z,13.82
2018-05-09T22:36:25.377Z,14.07
2018-05-09T22:38:52.805Z,16.00
2018-05-09T22:41:20.208Z,14.40
2018-05-09T22:43:47.644Z,17.73
2018-05-09T22:46:15.049Z,12.82
2018-05-09T22:48:42.478Z,11.52
2018-05-09T22:51:09.889Z,14.57
2018-05-09T22:53:37.312Z,13.50
2018-05-09T22:56:04.726Z,17.92
2018-05-09T22:58:32.184Z,14.90
2018-05-09T23:00:59.608Z,17.67
2018-05-09T23:03:27.034Z,12.30
2018-05-09T23:05:54.446Z,15.05
2018-05-09T23:08:21.877Z,12.63
2018-05-09T23:10:49.292Z,10.90
2018-05-09T23:13:16.716Z,17.73
2018-05-09T23:15:44.133Z,19.55
2018-05-09T23:18:11.558Z,16.00
2018-05-09T23:20:38.963Z,13.95
2018-05-09T23:23:06.377Z,17.25
2018-05-09T23:25:33.797Z,18.85
2018-05-09T23:28:01.216Z,14.60
2018-05-09T23:30:28.641Z,15.95
2018-05-09T23:32:56.048Z,14.90
2018-05-09T23:35:23.476Z,19.50
2018-05-09T23:37:50.894Z,17.48
2018-05-09T23:40:18.311Z,16.87
2018-05-09T23:42:45.730Z,16.50
2018-05-09T23:45:13.156Z,13.82
2018-05-09T23:47:40.584Z,12.90
2018-05-09T23:50:08.009Z,11.82
2018-05-09T23:52:35.425Z,11.85
2018-05-09T23:55:02.853Z,10.32
2018-05-09T23:57:30.265Z,10.60
2018-05-09T23:59:57.688Z,10.70
